sensor_id;sensor_type;location;lat;lon;timestamp;P1;durP1;ratioP1;P2;durP2;ratioP2
50301;SDS011;36550;50.472;19.744;2022-12-04T00:01:41;46.10;;;17.02;;
50301;SDS011;36550;50.472;19.744;2022-12-04T00:04:25;54.27;;;20.82;;
50301;SDS011;36550;50.472;19.744;2022-12-04T00:07:10;46.75;;;19.73;;
50301;SDS011;36550;50.472;19.744;2022-12-04T00:09:54;50.30;;;20.25;;
50301;SDS011;36550;50.472;19.744;2022-12-04T00:12:38;50.05;;;18.62;;
50301;SDS011;36550;50.472;19.744;2022-12-04T00:15:23;47.45;;;20.12;;
50301;SDS011;36550;50.472;19.744;2022-12-04T00:18:07;47.58;;;20.08;;
50301;SDS011;36550;50.472;19.744;2022-12-04T00:20:51;51.75;;;18.95;;
50301;SDS011;36550;50.472;19.744;2022-12-04T00:23:36;47.88;;;18.70;;
50301;SDS011;36550;50.472;19.744;2022-12-04T00:26:22;48.90;;;19.97;;
50301;SDS011;36550;50.472;19.744;2022-12-04T00:29:09;49.65;;;21.02;;
50301;SDS011;36550;50.472;19.744;2022-12-04T00:31:54;56.48;;;22.70;;
50301;SDS011;36550;50.472;19.744;2022-12-04T00:34:38;57.53;;;20.80;;
50301;SDS011;36550;50.472;19.744;2022-12-04T00:37:22;51.68;;;21.05;;
50301;SDS011;36550;50.472;19.744;2022-12-04T00:40:07;48.42;;;18.35;;
50301;SDS011;36550;50.472;19.744;2022-12-04T00:42:51;50.80;;;20.52;;
50301;SDS011;36550;50.472;19.744;2022-12-04T00:45:36;53.08;;;20.37;;
50301;SDS011;36550;50.472;19.744;2022-12-04T00:48:20;50.05;;;21.10;;
50301;SDS011;36550;50.472;19.744;2022-12-04T00:51:06;53.20;;;21.05;;
50301;SDS011;36550;50.472;19.744;2022-12-04T00:53:53;51.77;;;18.45;;
50301;SDS011;36550;50.472;19.744;2022-12-04T00:56:37;47.93;;;18.95;;
50301;SDS011;36550;50.472;19.744;2022-12-04T00:59:21;44.48;;;18.23;;
50301;SDS011;36550;50.472;19.744;2022-12-04T01:02:06;47.33;;;18.15;;
50301;SDS011;36550;50.472;19.744;2022-12-04T01:04:50;49.73;;;20.23;;
50301;SDS011;36550;50.472;19.744;2022-12-04T01:07:34;46.45;;;19.02;;
50301;SDS011;36550;50.472;19.744;2022-12-04T01:10:19;45.60;;;19.48;;
50301;SDS011;36550;50.472;19.744;2022-12-04T01:13:03;45.28;;;17.82;;
50301;SDS011;36550;50.472;19.744;2022-12-04T01:15:48;50.98;;;20.97;;
50301;SDS011;36550;50.472;19.744;2022-12-04T01:18:32;49.85;;;18.55;;
50301;SDS011;36550;50.472;19.744;2022-12-04T01:21:17;44.13;;;16.95;;
50301;SDS011;36550;50.472;19.744;2022-12-04T01:24:01;43.78;;;14.30;;
50301;SDS011;36550;50.472;19.744;2022-12-04T01:26:46;43.75;;;17.75;;
50301;SDS011;36550;50.472;19.744;2022-12-04T01:29:31;40.10;;;14.93;;
50301;SDS011;36550;50.472;19.744;2022-12-04T01:32:15;39.33;;;16.52;;
50301;SDS011;36550;50.472;19.744;2022-12-04T01:34:59;41.15;;;16.12;;
50301;SDS011;36550;50.472;19.744;2022-12-04T01:37:43;46.13;;;16.80;;
50301;SDS011;36550;50.472;19.744;2022-12-04T01:40:28;38.30;;;15.50;;
50301;SDS011;36550;50.472;19.744;2022-12-04T01:43:12;48.73;;;18.90;;
50301;SDS011;36550;50.472;19.744;2022-12-04T01:45:58;35.68;;;14.53;;
50301;SDS011;36550;50.472;19.744;2022-12-04T01:48:48;35.13;;;13.72;;
50301;SDS011;36550;50.472;19.744;2022-12-04T01:51:37;44.73;;;17.57;;
50301;SDS011;36550;50.472;19.744;2022-12-04T01:54:26;43.73;;;18.50;;
50301;SDS011;36550;50.472;19.744;2022-12-04T01:57:18;42.25;;;17.37;;
50301;SDS011;36550;50.472;19.744;2022-12-04T02:00:07;38.53;;;15.83;;
50301;SDS011;36550;50.472;19.744;2022-12-04T02:02:55;43.68;;;18.85;;
50301;SDS011;36550;50.472;19.744;2022-12-04T02:05:39;39.33;;;16.60;;
50301;SDS011;36550;50.472;19.744;2022-12-04T02:08:24;44.00;;;17.00;;
50301;SDS011;36550;50.472;19.744;2022-12-04T02:24:01;40.52;;;17.42;;
50301;SDS011;36550;50.472;19.744;2022-12-04T02:27:07;36.73;;;15.32;;
50301;SDS011;36550;50.472;19.744;2022-12-04T02:29:58;39.92;;;16.97;;
50301;SDS011;36550;50.472;19.744;2022-12-04T02:32:51;37.20;;;16.05;;
50301;SDS011;36550;50.472;19.744;2022-12-04T02:35:50;39.98;;;16.20;;
50301;SDS011;36550;50.472;19.744;2022-12-04T02:39:01;42.88;;;16.10;;
50301;SDS011;36550;50.472;19.744;2022-12-04T02:41:58;45.52;;;18.87;;
50301;SDS011;36550;50.472;19.744;2022-12-04T02:44:59;37.88;;;15.93;;
50301;SDS011;36550;50.472;19.744;2022-12-04T02:47:48;39.13;;;15.48;;
50301;SDS011;36550;50.472;19.744;2022-12-04T02:53:24;39.58;;;17.27;;
50301;SDS011;36550;50.472;19.744;2022-12-04T02:56:12;39.75;;;15.78;;
50301;SDS011;36550;50.472;19.744;2022-12-04T02:59:01;35.17;;;15.35;;
50301;SDS011;36550;50.472;19.744;2022-12-04T03:01:50;36.50;;;14.73;;
50301;SDS011;36550;50.472;19.744;2022-12-04T03:04:38;33.15;;;14.60;;
50301;SDS011;36550;50.472;19.744;2022-12-04T03:07:27;33.65;;;13.85;;
50301;SDS011;36550;50.472;19.744;2022-12-04T03:10:16;36.42;;;15.25;;
50301;SDS011;36550;50.472;19.744;2022-12-04T03:13:21;139.18;;;34.40;;
50301;SDS011;36550;50.472;19.744;2022-12-04T03:16:26;117.75;;;32.08;;
50301;SDS011;36550;50.472;19.744;2022-12-04T03:19:18;60.95;;;26.07;;
50301;SDS011;36550;50.472;19.744;2022-12-04T03:22:10;32.23;;;14.75;;
50301;SDS011;36550;50.472;19.744;2022-12-04T03:24:58;35.43;;;12.50;;
50301;SDS011;36550;50.472;19.744;2022-12-04T03:30:40;35.80;;;16.02;;
50301;SDS011;36550;50.472;19.744;2022-12-04T03:33:28;32.98;;;13.53;;
50301;SDS011;36550;50.472;19.744;2022-12-04T03:36:26;33.92;;;15.20;;
50301;SDS011;36550;50.472;19.744;2022-12-04T03:42:21;27.77;;;11.40;;
50301;SDS011;36550;50.472;19.744;2022-12-04T03:45:28;30.02;;;13.20;;
50301;SDS011;36550;50.472;19.744;2022-12-04T03:48:50;27.82;;;12.65;;
50301;SDS011;36550;50.472;19.744;2022-12-04T03:51:38;29.30;;;11.83;;
50301;SDS011;36550;50.472;19.744;2022-12-04T03:54:33;29.25;;;12.58;;
50301;SDS011;36550;50.472;19.744;2022-12-04T03:57:28;27.70;;;11.50;;
50301;SDS011;36550;50.472;19.744;2022-12-04T04:00:16;29.35;;;11.20;;
50301;SDS011;36550;50.472;19.744;2022-12-04T04:03:12;25.52;;;12.00;;
50301;SDS011;36550;50.472;19.744;2022-12-04T04:06:01;25.85;;;10.72;;
50301;SDS011;36550;50.472;19.744;2022-12-04T04:08:51;27.85;;;11.55;;
50301;SDS011;36550;50.472;19.744;2022-12-04T04:11:48;24.23;;;9.88;;
50301;SDS011;36550;50.472;19.744;2022-12-04T04:15:02;28.23;;;13.08;;
50301;SDS011;36550;50.472;19.744;2022-12-04T04:18:08;30.17;;;12.15;;
50301;SDS011;36550;50.472;19.744;2022-12-04T04:21:10;34.90;;;14.05;;
50301;SDS011;36550;50.472;19.744;2022-12-04T04:24:31;33.35;;;13.90;;
50301;SDS011;36550;50.472;19.744;2022-12-04T04:27:23;29.42;;;10.88;;
50301;SDS011;36550;50.472;19.744;2022-12-04T04:30:08;31.02;;;13.13;;
50301;SDS011;36550;50.472;19.744;2022-12-04T04:35:52;33.05;;;12.78;;
50301;SDS011;36550;50.472;19.744;2022-12-04T04:38:47;35.03;;;12.90;;
50301;SDS011;36550;50.472;19.744;2022-12-04T04:42:30;33.45;;;12.95;;
50301;SDS011;36550;50.472;19.744;2022-12-04T04:47:30;28.85;;;11.12;;
50301;SDS011;36550;50.472;19.744;2022-12-04T04:50:23;47.03;;;16.02;;
50301;SDS011;36550;50.472;19.744;2022-12-04T04:53:08;35.40;;;12.47;;
50301;SDS011;36550;50.472;19.744;2022-12-04T04:55:56;28.25;;;10.30;;
50301;SDS011;36550;50.472;19.744;2022-12-04T04:58:42;30.15;;;12.73;;
50301;SDS011;36550;50.472;19.744;2022-12-04T05:01:27;31.12;;;12.75;;
50301;SDS011;36550;50.472;19.744;2022-12-04T05:04:11;29.27;;;12.18;;
50301;SDS011;36550;50.472;19.744;2022-12-04T05:06:55;35.60;;;13.58;;
50301;SDS011;36550;50.472;19.744;2022-12-04T05:09:40;33.78;;;12.45;;
50301;SDS011;36550;50.472;19.744;2022-12-04T05:12:24;25.10;;;10.32;;
50301;SDS011;36550;50.472;19.744;2022-12-04T05:15:09;26.87;;;10.55;;
50301;SDS011;36550;50.472;19.744;2022-12-04T05:17:53;26.10;;;11.12;;
50301;SDS011;36550;50.472;19.744;2022-12-04T05:20:38;28.12;;;10.45;;
50301;SDS011;36550;50.472;19.744;2022-12-04T05:23:23;30.35;;;13.43;;
50301;SDS011;36550;50.472;19.744;2022-12-04T05:26:07;30.30;;;11.50;;
50301;SDS011;36550;50.472;19.744;2022-12-04T05:28:51;28.62;;;11.80;;
50301;SDS011;36550;50.472;19.744;2022-12-04T05:31:35;29.05;;;12.25;;
50301;SDS011;36550;50.472;19.744;2022-12-04T05:34:20;29.35;;;11.05;;
50301;SDS011;36550;50.472;19.744;2022-12-04T05:37:04;30.95;;;11.05;;
50301;SDS011;36550;50.472;19.744;2022-12-04T05:39:48;28.15;;;12.15;;
50301;SDS011;36550;50.472;19.744;2022-12-04T05:42:32;31.00;;;13.03;;
50301;SDS011;36550;50.472;19.744;2022-12-04T05:45:17;22.75;;;10.58;;
50301;SDS011;36550;50.472;19.744;2022-12-04T05:48:01;24.60;;;10.00;;
50301;SDS011;36550;50.472;19.744;2022-12-04T05:50:46;32.38;;;13.85;;
50301;SDS011;36550;50.472;19.744;2022-12-04T05:53:30;33.00;;;13.72;;
50301;SDS011;36550;50.472;19.744;2022-12-04T05:56:14;35.28;;;16.62;;
50301;SDS011;36550;50.472;19.744;2022-12-04T05:58:58;42.80;;;16.15;;
50301;SDS011;36550;50.472;19.744;2022-12-04T06:01:43;53.58;;;23.83;;
50301;SDS011;36550;50.472;19.744;2022-12-04T06:04:28;31.85;;;14.58;;
50301;SDS011;36550;50.472;19.744;2022-12-04T06:07:12;28.23;;;12.50;;
50301;SDS011;36550;50.472;19.744;2022-12-04T06:09:56;29.00;;;12.47;;
50301;SDS011;36550;50.472;19.744;2022-12-04T06:12:41;30.12;;;11.95;;
50301;SDS011;36550;50.472;19.744;2022-12-04T06:15:25;25.10;;;10.25;;
50301;SDS011;36550;50.472;19.744;2022-12-04T06:18:09;25.20;;;11.80;;
50301;SDS011;36550;50.472;19.744;2022-12-04T06:20:56;29.25;;;12.78;;
50301;SDS011;36550;50.472;19.744;2022-12-04T06:23:41;32.73;;;13.43;;
50301;SDS011;36550;50.472;19.744;2022-12-04T06:26:25;28.85;;;12.63;;
50301;SDS011;36550;50.472;19.744;2022-12-04T06:29:11;26.93;;;11.65;;
50301;SDS011;36550;50.472;19.744;2022-12-04T06:31:56;28.70;;;11.83;;
50301;SDS011;36550;50.472;19.744;2022-12-04T06:34:40;29.70;;;12.65;;
50301;SDS011;36550;50.472;19.744;2022-12-04T06:37:24;25.45;;;11.70;;
50301;SDS011;36550;50.472;19.744;2022-12-04T06:40:09;28.35;;;11.40;;
50301;SDS011;36550;50.472;19.744;2022-12-04T06:42:54;31.73;;;14.25;;
50301;SDS011;36550;50.472;19.744;2022-12-04T06:45:38;35.60;;;15.32;;
50301;SDS011;36550;50.472;19.744;2022-12-04T06:48:22;26.27;;;10.65;;
50301;SDS011;36550;50.472;19.744;2022-12-04T06:51:11;28.17;;;11.85;;
50301;SDS011;36550;50.472;19.744;2022-12-04T06:54:08;30.17;;;12.70;;
50301;SDS011;36550;50.472;19.744;2022-12-04T06:56:53;24.02;;;10.80;;
50301;SDS011;36550;50.472;19.744;2022-12-04T06:59:37;25.72;;;11.75;;
50301;SDS011;36550;50.472;19.744;2022-12-04T07:02:22;23.98;;;9.60;;
50301;SDS011;36550;50.472;19.744;2022-12-04T07:05:06;23.70;;;9.90;;
50301;SDS011;36550;50.472;19.744;2022-12-04T07:07:51;25.68;;;11.70;;
50301;SDS011;36550;50.472;19.744;2022-12-04T07:10:35;24.75;;;8.73;;
50301;SDS011;36550;50.472;19.744;2022-12-04T07:13:20;26.12;;;10.90;;
50301;SDS011;36550;50.472;19.744;2022-12-04T07:16:05;27.05;;;10.70;;
50301;SDS011;36550;50.472;19.744;2022-12-04T07:18:51;30.97;;;12.73;;
50301;SDS011;36550;50.472;19.744;2022-12-04T07:21:36;32.28;;;15.28;;
50301;SDS011;36550;50.472;19.744;2022-12-04T07:24:20;32.15;;;16.32;;
50301;SDS011;36550;50.472;19.744;2022-12-04T07:27:04;34.25;;;14.60;;
50301;SDS011;36550;50.472;19.744;2022-12-04T07:29:50;39.05;;;15.40;;
50301;SDS011;36550;50.472;19.744;2022-12-04T07:35:19;28.75;;;10.95;;
50301;SDS011;36550;50.472;19.744;2022-12-04T07:38:04;25.92;;;11.00;;
50301;SDS011;36550;50.472;19.744;2022-12-04T07:40:48;34.53;;;13.83;;
50301;SDS011;36550;50.472;19.744;2022-12-04T07:43:32;28.35;;;12.33;;
50301;SDS011;36550;50.472;19.744;2022-12-04T07:46:18;32.93;;;14.05;;
50301;SDS011;36550;50.472;19.744;2022-12-04T07:49:09;27.52;;;11.15;;
50301;SDS011;36550;50.472;19.744;2022-12-04T07:51:55;28.77;;;13.20;;
50301;SDS011;36550;50.472;19.744;2022-12-04T07:54:39;36.40;;;17.48;;
50301;SDS011;36550;50.472;19.744;2022-12-04T07:57:23;53.05;;;22.77;;
50301;SDS011;36550;50.472;19.744;2022-12-04T08:00:08;59.98;;;27.35;;
50301;SDS011;36550;50.472;19.744;2022-12-04T08:02:54;35.15;;;17.52;;
50301;SDS011;36550;50.472;19.744;2022-12-04T08:05:38;34.65;;;16.50;;
50301;SDS011;36550;50.472;19.744;2022-12-04T08:08:23;32.45;;;14.63;;
50301;SDS011;36550;50.472;19.744;2022-12-04T08:11:08;29.02;;;12.20;;
50301;SDS011;36550;50.472;19.744;2022-12-04T08:13:57;32.65;;;15.15;;
50301;SDS011;36550;50.472;19.744;2022-12-04T08:16:47;29.98;;;13.58;;
50301;SDS011;36550;50.472;19.744;2022-12-04T08:19:32;32.38;;;13.35;;
50301;SDS011;36550;50.472;19.744;2022-12-04T08:22:16;48.52;;;19.42;;
50301;SDS011;36550;50.472;19.744;2022-12-04T08:25:00;32.03;;;13.00;;
50301;SDS011;36550;50.472;19.744;2022-12-04T08:27:45;33.48;;;17.42;;
50301;SDS011;36550;50.472;19.744;2022-12-04T08:30:31;30.77;;;13.78;;
50301;SDS011;36550;50.472;19.744;2022-12-04T08:33:18;28.42;;;14.38;;
50301;SDS011;36550;50.472;19.744;2022-12-04T08:36:06;28.57;;;13.05;;
50301;SDS011;36550;50.472;19.744;2022-12-04T08:38:53;27.37;;;12.18;;
50301;SDS011;36550;50.472;19.744;2022-12-04T08:41:38;25.27;;;12.03;;
50301;SDS011;36550;50.472;19.744;2022-12-04T08:44:22;26.17;;;11.68;;
50301;SDS011;36550;50.472;19.744;2022-12-04T08:47:06;28.90;;;12.65;;
50301;SDS011;36550;50.472;19.744;2022-12-04T08:49:51;31.30;;;14.03;;
50301;SDS011;36550;50.472;19.744;2022-12-04T08:52:35;27.42;;;13.13;;
50301;SDS011;36550;50.472;19.744;2022-12-04T08:55:20;30.82;;;13.85;;
50301;SDS011;36550;50.472;19.744;2022-12-04T08:58:04;33.23;;;14.28;;
50301;SDS011;36550;50.472;19.744;2022-12-04T09:00:48;29.60;;;10.98;;
50301;SDS011;36550;50.472;19.744;2022-12-04T09:03:33;47.55;;;25.37;;
50301;SDS011;36550;50.472;19.744;2022-12-04T09:06:18;45.50;;;21.60;;
50301;SDS011;36550;50.472;19.744;2022-12-04T09:09:03;174.02;;;69.03;;
50301;SDS011;36550;50.472;19.744;2022-12-04T09:11:47;65.65;;;28.27;;
50301;SDS011;36550;50.472;19.744;2022-12-04T09:14:32;46.08;;;21.70;;
50301;SDS011;36550;50.472;19.744;2022-12-04T09:17:16;60.78;;;32.10;;
50301;SDS011;36550;50.472;19.744;2022-12-04T09:20:01;305.02;;;89.40;;
50301;SDS011;36550;50.472;19.744;2022-12-04T09:22:52;770.35;;;247.33;;
50301;SDS011;36550;50.472;19.744;2022-12-04T09:25:34;653.27;;;190.32;;
50301;SDS011;36550;50.472;19.744;2022-12-04T09:28:19;606.70;;;162.62;;
50301;SDS011;36550;50.472;19.744;2022-12-04T09:31:04;959.05;;;280.05;;
50301;SDS011;36550;50.472;19.744;2022-12-04T09:33:48;1202.10;;;361.15;;
50301;SDS011;36550;50.472;19.744;2022-12-04T09:36:33;508.32;;;119.65;;
50301;SDS011;36550;50.472;19.744;2022-12-04T09:39:17;1006.70;;;293.93;;
50301;SDS011;36550;50.472;19.744;2022-12-04T09:45:02;782.05;;;242.90;;
50301;SDS011;36550;50.472;19.744;2022-12-04T09:47:57;502.73;;;143.00;;
50301;SDS011;36550;50.472;19.744;2022-12-04T09:50:45;640.88;;;266.80;;
50301;SDS011;36550;50.472;19.744;2022-12-04T09:53:36;586.88;;;223.05;;
50301;SDS011;36550;50.472;19.744;2022-12-04T09:56:36;453.90;;;169.62;;
50301;SDS011;36550;50.472;19.744;2022-12-04T09:59:21;427.45;;;172.93;;
50301;SDS011;36550;50.472;19.744;2022-12-04T10:02:18;265.70;;;72.20;;
50301;SDS011;36550;50.472;19.744;2022-12-04T10:08:40;87.08;;;33.98;;
50301;SDS011;36550;50.472;19.744;2022-12-04T10:15:00;126.42;;;41.08;;
50301;SDS011;36550;50.472;19.744;2022-12-04T10:21:29;63.70;;;24.30;;
50301;SDS011;36550;50.472;19.744;2022-12-04T10:30:40;127.75;;;40.35;;
50301;SDS011;36550;50.472;19.744;2022-12-04T10:33:49;186.57;;;70.87;;
50301;SDS011;36550;50.472;19.744;2022-12-04T10:36:38;186.82;;;77.42;;
50301;SDS011;36550;50.472;19.744;2022-12-04T10:39:25;94.35;;;44.48;;
50301;SDS011;36550;50.472;19.744;2022-12-04T10:45:11;77.55;;;33.85;;
50301;SDS011;36550;50.472;19.744;2022-12-04T10:47:56;85.47;;;42.62;;
50301;SDS011;36550;50.472;19.744;2022-12-04T10:50:41;66.12;;;28.75;;
50301;SDS011;36550;50.472;19.744;2022-12-04T10:53:31;53.23;;;24.87;;
50301;SDS011;36550;50.472;19.744;2022-12-04T10:56:20;67.40;;;30.15;;
50301;SDS011;36550;50.472;19.744;2022-12-04T10:59:12;60.58;;;24.50;;
50301;SDS011;36550;50.472;19.744;2022-12-04T11:01:59;60.00;;;26.55;;
50301;SDS011;36550;50.472;19.744;2022-12-04T11:04:57;62.38;;;28.98;;
50301;SDS011;36550;50.472;19.744;2022-12-04T11:07:50;70.72;;;31.27;;
50301;SDS011;36550;50.472;19.744;2022-12-04T11:13:26;41.35;;;19.12;;
50301;SDS011;36550;50.472;19.744;2022-12-04T11:16:29;47.58;;;20.65;;
50301;SDS011;36550;50.472;19.744;2022-12-04T11:22:12;50.00;;;22.60;;
50301;SDS011;36550;50.472;19.744;2022-12-04T11:25:00;38.85;;;17.10;;
50301;SDS011;36550;50.472;19.744;2022-12-04T11:27:45;44.48;;;22.70;;
50301;SDS011;36550;50.472;19.744;2022-12-04T11:30:37;38.85;;;20.65;;
50301;SDS011;36550;50.472;19.744;2022-12-04T11:33:35;52.75;;;29.77;;
50301;SDS011;36550;50.472;19.744;2022-12-04T11:39:27;58.45;;;34.90;;
50301;SDS011;36550;50.472;19.744;2022-12-04T11:42:26;51.50;;;27.15;;
50301;SDS011;36550;50.472;19.744;2022-12-04T11:45:19;37.88;;;20.23;;
50301;SDS011;36550;50.472;19.744;2022-12-04T11:48:15;37.78;;;19.62;;
50301;SDS011;36550;50.472;19.744;2022-12-04T11:57:38;38.90;;;20.20;;
50301;SDS011;36550;50.472;19.744;2022-12-04T12:00:26;41.55;;;22.13;;
50301;SDS011;36550;50.472;19.744;2022-12-04T12:03:15;36.45;;;18.98;;
50301;SDS011;36550;50.472;19.744;2022-12-04T12:06:08;38.70;;;21.12;;
50301;SDS011;36550;50.472;19.744;2022-12-04T12:09:27;35.83;;;19.45;;
50301;SDS011;36550;50.472;19.744;2022-12-04T12:26:08;31.75;;;16.67;;
50301;SDS011;36550;50.472;19.744;2022-12-04T12:35:23;31.55;;;14.63;;
50301;SDS011;36550;50.472;19.744;2022-12-04T12:38:16;39.08;;;17.40;;
50301;SDS011;36550;50.472;19.744;2022-12-04T12:41:05;39.08;;;18.87;;
50301;SDS011;36550;50.472;19.744;2022-12-04T12:44:03;63.33;;;31.75;;
50301;SDS011;36550;50.472;19.744;2022-12-04T12:47:08;36.30;;;15.03;;
50301;SDS011;36550;50.472;19.744;2022-12-04T12:50:04;72.15;;;34.75;;
50301;SDS011;36550;50.472;19.744;2022-12-04T12:53:12;69.55;;;32.58;;
50301;SDS011;36550;50.472;19.744;2022-12-04T12:56:06;99.97;;;48.65;;
50301;SDS011;36550;50.472;19.744;2022-12-04T13:01:41;82.02;;;37.67;;
50301;SDS011;36550;50.472;19.744;2022-12-04T13:04:48;78.50;;;37.38;;
50301;SDS011;36550;50.472;19.744;2022-12-04T13:10:41;52.05;;;24.65;;
50301;SDS011;36550;50.472;19.744;2022-12-04T13:13:30;44.70;;;21.45;;
50301;SDS011;36550;50.472;19.744;2022-12-04T13:16:23;60.08;;;32.60;;
50301;SDS011;36550;50.472;19.744;2022-12-04T13:22:40;53.17;;;26.93;;
50301;SDS011;36550;50.472;19.744;2022-12-04T13:31:45;45.20;;;22.13;;
50301;SDS011;36550;50.472;19.744;2022-12-04T13:34:55;41.05;;;20.00;;
50301;SDS011;36550;50.472;19.744;2022-12-04T13:46:32;127.47;;;46.80;;
50301;SDS011;36550;50.472;19.744;2022-12-04T13:52:24;459.77;;;169.72;;
50301;SDS011;36550;50.472;19.744;2022-12-04T13:55:25;849.55;;;354.40;;
50301;SDS011;36550;50.472;19.744;2022-12-04T13:58:24;526.63;;;189.22;;
50301;SDS011;36550;50.472;19.744;2022-12-04T14:01:23;430.60;;;140.82;;
50301;SDS011;36550;50.472;19.744;2022-12-04T14:04:26;519.17;;;215.72;;
50301;SDS011;36550;50.472;19.744;2022-12-04T14:07:38;476.25;;;212.93;;
50301;SDS011;36550;50.472;19.744;2022-12-04T14:10:30;525.08;;;288.68;;
50301;SDS011;36550;50.472;19.744;2022-12-04T14:13:18;469.00;;;242.20;;
50301;SDS011;36550;50.472;19.744;2022-12-04T14:16:07;435.37;;;148.55;;
50301;SDS011;36550;50.472;19.744;2022-12-04T14:19:23;286.55;;;89.28;;
50301;SDS011;36550;50.472;19.744;2022-12-04T14:22:38;107.67;;;36.77;;
50301;SDS011;36550;50.472;19.744;2022-12-04T14:25:23;78.62;;;29.65;;
50301;SDS011;36550;50.472;19.744;2022-12-04T14:28:35;115.57;;;48.77;;
50301;SDS011;36550;50.472;19.744;2022-12-04T14:31:22;84.25;;;37.60;;
50301;SDS011;36550;50.472;19.744;2022-12-04T14:34:22;70.72;;;33.02;;
50301;SDS011;36550;50.472;19.744;2022-12-04T14:37:16;69.65;;;34.95;;
50301;SDS011;36550;50.472;19.744;2022-12-04T14:40:05;48.85;;;25.17;;
50301;SDS011;36550;50.472;19.744;2022-12-04T14:42:55;49.03;;;25.40;;
50301;SDS011;36550;50.472;19.744;2022-12-04T14:45:44;68.15;;;37.05;;
50301;SDS011;36550;50.472;19.744;2022-12-04T14:48:46;69.55;;;37.28;;
50301;SDS011;36550;50.472;19.744;2022-12-04T14:51:45;52.05;;;28.55;;
50301;SDS011;36550;50.472;19.744;2022-12-04T14:57:42;40.95;;;18.42;;
50301;SDS011;36550;50.472;19.744;2022-12-04T15:00:47;50.30;;;25.17;;
50301;SDS011;36550;50.472;19.744;2022-12-04T15:03:30;43.85;;;21.27;;
50301;SDS011;36550;50.472;19.744;2022-12-04T15:06:23;40.85;;;20.20;;
50301;SDS011;36550;50.472;19.744;2022-12-04T15:09:18;71.70;;;26.80;;
50301;SDS011;36550;50.472;19.744;2022-12-04T15:12:23;51.25;;;23.27;;
50301;SDS011;36550;50.472;19.744;2022-12-04T15:15:24;46.85;;;21.35;;
50301;SDS011;36550;50.472;19.744;2022-12-04T15:18:12;46.08;;;22.15;;
50301;SDS011;36550;50.472;19.744;2022-12-04T15:20:59;36.13;;;17.37;;
50301;SDS011;36550;50.472;19.744;2022-12-04T15:23:45;47.40;;;21.00;;
50301;SDS011;36550;50.472;19.744;2022-12-04T15:26:29;40.08;;;20.48;;
50301;SDS011;36550;50.472;19.744;2022-12-04T15:29:16;32.35;;;15.83;;
50301;SDS011;36550;50.472;19.744;2022-12-04T15:32:05;36.90;;;19.35;;
50301;SDS011;36550;50.472;19.744;2022-12-04T15:34:53;34.25;;;17.65;;
50301;SDS011;36550;50.472;19.744;2022-12-04T15:37:44;34.95;;;16.90;;
50301;SDS011;36550;50.472;19.744;2022-12-04T15:40:29;36.95;;;18.25;;
50301;SDS011;36550;50.472;19.744;2022-12-04T15:43:14;29.87;;;13.70;;
50301;SDS011;36550;50.472;19.744;2022-12-04T15:46:00;33.90;;;17.25;;
50301;SDS011;36550;50.472;19.744;2022-12-04T15:49:31;32.10;;;16.12;;
50301;SDS011;36550;50.472;19.744;2022-12-04T15:52:03;37.35;;;18.23;;
50301;SDS011;36550;50.472;19.744;2022-12-04T15:55:07;55.23;;;29.40;;
50301;SDS011;36550;50.472;19.744;2022-12-04T15:57:53;90.55;;;45.17;;
50301;SDS011;36550;50.472;19.744;2022-12-04T16:00:40;67.40;;;34.35;;
50301;SDS011;36550;50.472;19.744;2022-12-04T16:03:31;44.73;;;23.15;;
50301;SDS011;36550;50.472;19.744;2022-12-04T16:06:30;37.55;;;17.92;;
50301;SDS011;36550;50.472;19.744;2022-12-04T16:12:15;36.73;;;18.98;;
50301;SDS011;36550;50.472;19.744;2022-12-04T16:15:04;45.45;;;22.45;;
50301;SDS011;36550;50.472;19.744;2022-12-04T16:17:50;47.67;;;21.82;;
50301;SDS011;36550;50.472;19.744;2022-12-04T16:20:35;45.98;;;20.95;;
50301;SDS011;36550;50.472;19.744;2022-12-04T16:23:22;43.98;;;21.00;;
50301;SDS011;36550;50.472;19.744;2022-12-04T16:26:11;58.17;;;25.02;;
50301;SDS011;36550;50.472;19.744;2022-12-04T16:28:58;45.58;;;20.17;;
50301;SDS011;36550;50.472;19.744;2022-12-04T16:31:42;37.73;;;19.92;;
50301;SDS011;36550;50.472;19.744;2022-12-04T16:34:27;35.23;;;16.52;;
50301;SDS011;36550;50.472;19.744;2022-12-04T16:37:12;33.90;;;17.82;;
50301;SDS011;36550;50.472;19.744;2022-12-04T16:40:02;32.35;;;16.73;;
50301;SDS011;36550;50.472;19.744;2022-12-04T16:45:33;38.83;;;18.55;;
50301;SDS011;36550;50.472;19.744;2022-12-04T16:48:17;67.97;;;28.05;;
50301;SDS011;36550;50.472;19.744;2022-12-04T16:51:02;48.58;;;22.55;;
50301;SDS011;36550;50.472;19.744;2022-12-04T16:53:46;68.45;;;27.93;;
50301;SDS011;36550;50.472;19.744;2022-12-04T16:56:31;67.05;;;28.25;;
50301;SDS011;36550;50.472;19.744;2022-12-04T16:59:16;57.78;;;23.73;;
50301;SDS011;36550;50.472;19.744;2022-12-04T17:02:00;91.42;;;38.98;;
50301;SDS011;36550;50.472;19.744;2022-12-04T17:04:45;67.20;;;28.38;;
50301;SDS011;36550;50.472;19.744;2022-12-04T17:07:29;51.42;;;24.00;;
50301;SDS011;36550;50.472;19.744;2022-12-04T17:10:13;48.13;;;22.52;;
50301;SDS011;36550;50.472;19.744;2022-12-04T17:12:58;61.83;;;29.02;;
50301;SDS011;36550;50.472;19.744;2022-12-04T17:15:42;53.73;;;27.73;;
50301;SDS011;36550;50.472;19.744;2022-12-04T17:18:27;54.05;;;27.02;;
50301;SDS011;36550;50.472;19.744;2022-12-04T17:21:12;57.62;;;27.58;;
50301;SDS011;36550;50.472;19.744;2022-12-04T17:23:56;55.15;;;27.02;;
50301;SDS011;36550;50.472;19.744;2022-12-04T17:26:41;84.35;;;41.63;;
50301;SDS011;36550;50.472;19.744;2022-12-04T17:29:25;97.27;;;41.83;;
50301;SDS011;36550;50.472;19.744;2022-12-04T17:32:09;63.40;;;32.70;;
50301;SDS011;36550;50.472;19.744;2022-12-04T17:34:54;45.65;;;24.00;;
50301;SDS011;36550;50.472;19.744;2022-12-04T17:37:38;52.78;;;24.35;;
50301;SDS011;36550;50.472;19.744;2022-12-04T17:40:23;55.88;;;27.20;;
50301;SDS011;36550;50.472;19.744;2022-12-04T17:43:07;54.63;;;27.87;;
50301;SDS011;36550;50.472;19.744;2022-12-04T17:45:51;60.25;;;30.50;;
50301;SDS011;36550;50.472;19.744;2022-12-04T17:48:35;50.03;;;25.12;;
50301;SDS011;36550;50.472;19.744;2022-12-04T17:51:21;44.48;;;19.95;;
50301;SDS011;36550;50.472;19.744;2022-12-04T17:54:06;47.58;;;25.12;;
50301;SDS011;36550;50.472;19.744;2022-12-04T17:56:52;40.33;;;19.45;;
50301;SDS011;36550;50.472;19.744;2022-12-04T17:59:37;46.77;;;20.17;;
50301;SDS011;36550;50.472;19.744;2022-12-04T18:02:21;36.83;;;17.15;;
50301;SDS011;36550;50.472;19.744;2022-12-04T18:05:05;41.75;;;18.23;;
50301;SDS011;36550;50.472;19.744;2022-12-04T18:07:51;36.95;;;16.85;;
50301;SDS011;36550;50.472;19.744;2022-12-04T18:10:35;42.03;;;20.08;;
50301;SDS011;36550;50.472;19.744;2022-12-04T18:13:20;35.40;;;18.00;;
50301;SDS011;36550;50.472;19.744;2022-12-04T18:16:06;40.73;;;19.60;;